Time;durP1;ratioP1;P1;durP2;ratioP2;P2;SDS_P1;SDS_P2;PMS_P1;PMS_P2;Temp;Humidity;BMP_temperature;BMP_pressure;BME280_temperature;BME280_humidity;BME280_pressure;Samples;Min_cycle;Max_cycle;Signal;HPM_P1;HPM_P2
2022/08/08 00:00:19;;;;;;;8.50;6.10;;;;;;;15.86;84.60;102673.66;4966672;28;20489;-63
2022/08/08 00:02:50;;;;;;;8.40;6.07;;;;;;;15.89;84.90;102675.38;4984350;28;20022;-64
2022/08/08 00:05:35;;;;;;;9.93;5.85;;;;;;;15.84;85.11;102680.81;4987833;28;20038;-64
2022/08/08 00:08:25;;;;;;;8.77;5.82;;;;;;;15.84;84.91;102667.53;4970404;28;20030;-63
2022/08/08 00:11:08;;;;;;;12.48;6.13;;;;;;;15.83;85.13;102672.91;4988448;28;20069;-63
2022/08/08 00:14:00;;;;;;;11.15;6.00;;;;;;;15.83;85.10;102671.09;4970559;28;20054;-64
2022/08/08 00:16:28;;;;;;;8.55;5.85;;;;;;;15.81;85.09;102672.94;4957884;28;20038;-64
2022/08/08 00:18:58;;;;;;;8.47;5.80;;;;;;;15.79;85.10;102666.78;4951616;28;20061;-64
2022/08/08 00:21:32;;;;;;;8.05;6.05;;;;;;;15.73;85.40;102667.81;4937491;28;20026;-64
2022/08/08 00:24:00;;;;;;;7.63;5.40;;;;;;;15.73;85.51;102672.25;4971314;28;20038;-64
2022/08/08 00:26:35;;;;;;;10.73;5.68;;;;;;;15.74;85.57;102666.03;4987162;28;20624;-63
2022/08/08 00:29:03;;;;;;;9.70;5.72;;;;;;;15.75;85.61;102654.50;4969979;28;20062;-64
2022/08/08 00:31:33;;;;;;;9.45;6.03;;;;;;;15.74;85.71;102661.56;4987053;28;20071;-64
2022/08/08 00:37:28;;;;;;;11.40;7.65;;;;;;;15.64;85.37;102660.97;4988245;28;20037;-63
2022/08/08 00:40:13;;;;;;;13.23;8.98;;;;;;;15.57;85.92;102654.06;4969633;28;20465;-64
2022/08/08 00:43:03;;;;;;;9.05;8.15;;;;;;;15.50;86.43;102650.69;4970792;28;20026;-64
2022/08/08 00:45:59;;;;;;;13.93;9.45;;;;;;;15.43;86.57;102654.41;4961652;28;20058;-64
2022/08/08 00:48:42;;;;;;;13.50;10.25;;;;;;;15.39;86.73;102650.94;4948374;29;20438;-63
2022/08/08 00:51:08;;;;;;;11.63;9.32;;;;;;;15.38;86.78;102649.22;4964625;28;20183;-63
2022/08/08 00:54:11;;;;;;;13.55;9.40;;;;;;;15.29;87.30;102650.31;4968600;28;20063;-63
2022/08/08 00:56:47;;;;;;;13.10;10.15;;;;;;;15.27;87.20;102645.97;4986036;28;20038;-64
2022/08/08 00:59:51;;;;;;;14.65;10.38;;;;;;;15.21;87.20;102648.78;4969454;28;20026;-64
2022/08/08 01:02:41;;;;;;;15.98;10.70;;;;;;;15.20;87.40;102655.84;4948097;29;20494;-64
2022/08/08 01:05:41;;;;;;;16.40;10.90;;;;;;;15.18;87.52;102654.16;4957200;28;20046;-63
2022/08/08 01:08:24;;;;;;;15.52;11.00;;;;;;;15.19;87.79;102654.13;4987852;28;20053;-64
2022/08/08 01:11:19;;;;;;;14.93;11.43;;;;;;;15.13;88.14;102652.50;4975298;28;20057;-64
2022/08/08 01:13:47;;;;;;;14.05;10.55;;;;;;;15.08;88.27;102646.41;4949775;28;20102;-64
2022/08/08 01:16:38;;;;;;;15.83;11.30;;;;;;;15.05;88.09;102651.78;4970927;28;20029;-64
2022/08/08 01:19:38;;;;;;;17.20;11.13;;;;;;;15.02;88.45;102652.75;4970176;28;20034;-64
2022/08/08 01:22:35;;;;;;;17.67;11.05;;;;;;;15.03;88.51;102650.97;4969097;28;20111;-65
2022/08/08 01:25:09;;;;;;;17.98;10.45;;;;;;;15.05;88.63;102640.31;4969671;28;20041;-64
2022/08/08 01:27:46;;;;;;;15.57;11.63;;;;;;;15.10;88.57;102633.97;4985816;28;20030;-64
2022/08/08 01:30:49;;;;;;;16.55;10.52;;;;;;;15.19;88.65;102639.97;4986483;28;20031;-64
2022/08/08 01:33:39;;;;;;;19.40;12.00;;;;;;;15.12;89.02;102641.91;4947658;29;20379;-64
2022/08/08 01:36:36;;;;;;;13.82;10.73;;;;;;;15.07;89.05;102639.34;4931457;28;20042;-64
2022/08/08 01:39:04;;;;;;;14.93;10.43;;;;;;;15.04;88.84;102636.78;4967872;28;20034;-65
2022/08/08 01:41:30;;;;;;;14.25;10.48;;;;;;;15.02;89.12;102633.31;4966122;28;20027;-64
2022/08/08 01:44:06;;;;;;;12.98;11.00;;;;;;;15.03;89.44;102633.25;4967716;28;20185;-63
2022/08/08 01:46:44;;;;;;;12.25;10.00;;;;;;;15.02;89.26;102630.66;4965366;28;20042;-63
2022/08/08 01:49:39;;;;;;;11.83;10.20;;;;;;;14.98;89.43;102637.81;4950126;28;20178;-64
2022/08/08 01:52:15;;;;;;;14.90;9.23;;;;;;;14.99;89.29;102636.88;4955574;28;20028;-64
2022/08/08 01:55:06;;;;;;;13.10;10.50;;;;;;;14.95;89.15;102629.91;4987181;28;20042;-64
2022/08/08 01:57:33;;;;;;;13.98;10.13;;;;;;;14.94;89.17;102638.78;4985175;28;20030;-65
2022/08/08 02:00:08;;;;;;;15.32;10.50;;;;;;;14.94;89.12;102638.78;4969757;28;20034;-64
2022/08/08 02:02:59;;;;;;;12.27;9.65;;;;;;;14.94;89.00;102645.88;4977591;28;20413;-64
2022/08/08 02:05:44;;;;;;;13.00;9.05;;;;;;;14.94;88.75;102645.88;4945918;28;20057;-64
2022/08/08 02:08:20;;;;;;;11.57;9.02;;;;;;;14.94;88.88;102644.09;4956043;28;20030;-66
2022/08/08 02:11:32;;;;;;;10.32;9.05;;;;;;;14.95;89.15;102640.53;4968653;28;20041;-64
2022/08/08 02:14:13;;;;;;;16.33;8.88;;;;;;;14.91;88.65;102644.16;4934762;29;20840;-63
2022/08/08 02:17:02;;;;;;;12.73;8.82;;;;;;;14.90;88.71;102653.91;4927778;29;20066;-63
2022/08/08 02:19:43;;;;;;;13.60;9.50;;;;;;;14.84;88.97;102653.19;4927171;29;20060;-64
2022/08/08 02:22:31;;;;;;;10.70;8.68;;;;;;;14.84;88.79;102655.84;4942795;29;20095;-63
2022/08/08 02:25:09;;;;;;;13.95;9.70;;;;;;;14.80;89.10;102648.81;4940878;28;20387;-64
2022/08/08 02:28:01;;;;;;;13.80;9.57;;;;;;;14.82;89.06;102647.03;4942527;28;20627;-64
2022/08/08 02:30:58;;;;;;;10.88;8.52;;;;;;;14.78;89.00;102649.75;4921871;29;20050;-64
2022/08/08 02:33:44;;;;;;;13.32;9.50;;;;;;;14.77;89.19;102655.94;4938338;29;20453;-64
2022/08/08 02:36:35;;;;;;;15.77;9.68;;;;;;;14.73;88.93;102658.69;4945233;29;20027;-65
2022/08/08 02:39:03;;;;;;;12.90;9.32;;;;;;;14.70;88.59;102654.34;4911557;28;20079;-64
2022/08/08 02:42:03;;;;;;;11.13;9.40;;;;;;;14.66;88.98;102661.47;4927100;29;20030;-64
2022/08/08 02:44:38;;;;;;;14.25;9.45;;;;;;;14.65;89.02;102659.75;4919030;29;20043;-64
2022/08/08 02:47:22;;;;;;;14.85;10.30;;;;;;;14.65;89.00;102653.53;4926189;29;20449;-64
2022/08/08 02:50:02;;;;;;;13.13;10.43;;;;;;;14.62;88.92;102654.50;4927548;29;20514;-63
2022/08/08 02:52:43;;;;;;;12.63;9.52;;;;;;;14.61;89.29;102655.41;4924676;29;20032;-64
2022/08/08 02:55:23;;;;;;;14.07;9.23;;;;;;;14.59;89.32;102654.56;4927707;29;20046;-64
2022/08/08 02:58:07;;;;;;;13.70;9.98;;;;;;;14.60;89.39;102660.75;4925588;29;20607;-64
2022/08/08 03:00:51;;;;;;;14.23;10.88;;;;;;;14.63;89.43;102658.88;4926864;29;20038;-63
2022/08/08 03:03:39;;;;;;;19.00;10.82;;;;;;;14.64;89.32;102665.97;4932888;29;20035;-63
2022/08/08 03:06:04;;;;;;;15.13;10.75;;;;;;;14.63;89.55;102666.00;4947256;28;20127;-63
2022/08/08 03:08:41;;;;;;;15.98;12.23;;;;;;;14.60;89.42;102681.97;4936980;28;20031;-65
2022/08/08 03:11:40;;;;;;;16.00;11.32;;;;;;;14.55;89.67;102679.41;4926840;29;20111;-64
2022/08/08 03:14:08;;;;;;;12.50;10.73;;;;;;;14.53;89.89;102665.31;4945839;29;20714;-64
2022/08/08 03:16:47;;;;;;;18.63;11.32;;;;;;;14.47;89.80;102673.38;4946577;28;20027;-63
2022/08/08 03:19:47;;;;;;;16.52;12.15;;;;;;;14.44;90.20;102668.13;4944266;29;20035;-65
2022/08/08 03:22:13;;;;;;;15.52;10.43;;;;;;;14.44;89.92;102670.78;4946310;28;20497;-63
2022/08/08 03:24:38;;;;;;;14.63;10.73;;;;;;;14.44;89.96;102673.44;4958129;28;20125;-63
2022/08/08 03:27:23;;;;;;;13.65;9.75;;;;;;;14.43;90.08;102675.25;4965878;28;20289;-64
2022/08/08 03:29:52;;;;;;;13.52;9.43;;;;;;;14.44;89.83;102671.69;4950264;28;20402;-64
2022/08/08 03:35:06;;;;;;;13.70;9.57;;;;;;;14.47;89.91;102681.34;4959244;28;20041;-67
2022/08/08 03:37:35;;;;;;;12.10;8.75;;;;;;;14.51;89.83;102681.25;4965008;28;20031;-64
2022/08/08 03:40:01;;;;;;;14.80;9.75;;;;;;;14.52;90.05;102682.13;4968166;28;20027;-64
2022/08/08 03:42:26;;;;;;;12.40;9.32;;;;;;;14.55;89.86;102679.41;4967680;28;20043;-64
2022/08/08 03:44:51;;;;;;;11.13;8.35;;;;;;;14.56;89.91;102690.88;4968046;28;20069;-64
2022/08/08 03:47:21;;;;;;;10.98;8.43;;;;;;;14.56;89.87;102686.47;4968273;28;20496;-66
2022/08/08 03:49:47;;;;;;;17.63;9.57;;;;;;;14.54;90.02;102685.59;4960286;28;20031;-64
2022/08/08 03:52:14;;;;;;;11.65;8.90;;;;;;;14.52;90.24;102688.31;4949369;28;20034;-63
2022/08/08 03:54:42;;;;;;;13.20;8.48;;;;;;;14.51;90.15;102688.34;4948913;28;20054;-65
2022/08/08 03:57:11;;;;;;;11.32;8.52;;;;;;;14.52;90.46;102684.78;4949609;28;20027;-64
2022/08/08 03:59:37;;;;;;;13.25;8.98;;;;;;;14.53;90.63;102687.41;4951883;28;20035;-65
2022/08/08 04:02:02;;;;;;;13.68;10.13;;;;;;;14.55;90.75;102691.78;4967730;28;20035;-63
2022/08/08 04:04:35;;;;;;;13.00;9.23;;;;;;;14.55;90.49;102684.72;4948764;28;20093;-64
2022/08/08 04:07:01;;;;;;;13.45;8.45;;;;;;;14.55;90.74;102684.72;4950983;28;20027;-64
2022/08/08 04:09:26;;;;;;;10.98;8.18;;;;;;;14.58;90.61;102692.63;4956054;28;20037;-64
2022/08/08 04:11:51;;;;;;;12.05;8.65;;;;;;;14.64;90.65;102692.50;4957894;28;20126;-64
2022/08/08 04:14:17;;;;;;;13.00;7.85;;;;;;;14.75;90.87;102686.94;4981235;28;20058;-64
2022/08/08 04:16:42;;;;;;;9.77;6.80;;;;;;;14.84;90.51;102685.03;4984343;28;20037;-64
2022/08/08 04:19:08;;;;;;;10.55;7.95;;;;;;;14.99;90.51;102683.81;4966737;28;20121;-63
2022/08/08 04:21:33;;;;;;;10.75;7.80;;;;;;;15.06;90.57;102696.03;4974766;28;20030;-64
2022/08/08 04:23:59;;;;;;;11.75;7.68;;;;;;;15.09;90.53;102695.97;4987197;28;20502;-63
2022/08/08 04:26:24;;;;;;;13.68;7.32;;;;;;;15.14;90.35;102709.13;4969527;28;20019;-65
2022/08/08 04:28:49;;;;;;;9.85;6.55;;;;;;;15.18;90.20;102699.28;4980300;28;20127;-65
2022/08/08 04:31:15;;;;;;;10.98;7.28;;;;;;;15.22;90.43;102701.84;4979607;28;20397;-64
2022/08/08 04:33:40;;;;;;;9.25;6.47;;;;;;;15.27;90.15;102702.59;4980616;28;20113;-64
2022/08/08 04:36:05;;;;;;;10.40;7.13;;;;;;;15.36;90.11;102703.28;4984254;28;20201;-65
2022/08/08 04:38:30;;;;;;;9.07;6.40;;;;;;;15.43;90.16;102704.88;4971362;28;20033;-64
2022/08/08 04:40:56;;;;;;;10.32;6.18;;;;;;;15.50;89.98;102701.16;4985470;28;20030;-64
2022/08/08 04:43:22;;;;;;;11.07;7.50;;;;;;;15.60;90.19;102715.09;4975278;28;20026;-64
2022/08/08 04:45:48;;;;;;;12.63;7.20;;;;;;;15.68;90.01;102714.03;4980788;28;20469;-63
2022/08/08 04:48:14;;;;;;;10.40;7.15;;;;;;;15.81;90.11;102719.91;4971967;28;20031;-65
2022/08/08 04:50:39;;;;;;;11.55;6.78;;;;;;;15.90;89.71;102720.50;4967797;28;20026;-65
2022/08/08 04:53:04;;;;;;;14.77;8.30;;;;;;;15.92;89.83;102720.47;4967627;28;20046;-63
2022/08/08 04:55:30;;;;;;;12.05;7.43;;;;;;;15.91;89.25;102718.75;4967834;28;20031;-66
2022/08/08 04:57:55;;;;;;;11.80;7.50;;;;;;;15.78;88.45;102719.03;4954201;28;20107;-65
2022/08/08 05:00:23;;;;;;;10.70;7.55;;;;;;;15.66;87.88;102722.03;4950927;28;20659;-63
2022/08/08 05:02:49;;;;;;;8.87;6.90;;;;;;;15.55;87.62;102717.00;4981380;28;20053;-66
2022/08/08 05:05:14;;;;;;;9.93;7.07;;;;;;;15.50;87.50;102724.22;4965720;28;20062;-65
2022/08/08 05:07:39;;;;;;;7.32;6.60;;;;;;;15.53;87.43;102721.44;4966955;28;20066;-65
2022/08/08 05:10:05;;;;;;;9.85;7.00;;;;;;;15.59;87.00;102731.94;4976195;28;20113;-64
2022/08/08 05:12:31;;;;;;;8.00;6.22;;;;;;;15.70;86.52;102734.34;4986563;28;20042;-65
2022/08/08 05:14:56;;;;;;;10.95;7.38;;;;;;;15.78;86.07;102732.34;4978538;28;20465;-64
2022/08/08 05:17:21;;;;;;;8.15;6.95;;;;;;;15.89;85.55;102732.06;4966797;28;20568;-63
2022/08/08 05:19:47;;;;;;;13.25;6.72;;;;;;;16.00;85.28;102731.81;4966348;28;20109;-64
2022/08/08 05:22:12;;;;;;;6.93;5.25;;;;;;;16.20;85.23;102734.84;4967491;28;20500;-64
2022/08/08 05:24:37;;;;;;;8.75;5.80;;;;;;;16.41;84.54;102731.56;4965738;28;20031;-63
2022/08/08 05:27:03;;;;;;;9.52;6.15;;;;;;;16.54;84.61;102731.25;4967532;28;20403;-65
2022/08/08 05:29:29;;;;;;;7.70;5.10;;;;;;;16.70;84.23;102731.66;4967125;28;20492;-63
2022/08/08 05:31:54;;;;;;;14.35;6.30;;;;;;;16.89;84.38;102737.28;4966979;28;20031;-64
2022/08/08 05:34:24;;;;;;;11.40;4.93;;;;;;;16.99;84.40;102734.34;4966573;28;20108;-64
2022/08/08 05:36:52;;;;;;;9.10;4.15;;;;;;;17.12;84.41;102730.41;4967242;28;20370;-64
2022/08/08 05:39:20;;;;;;;7.05;4.75;;;;;;;17.29;84.04;102739.66;4967106;28;20046;-66
2022/08/08 05:41:48;;;;;;;13.10;5.28;;;;;;;17.47;83.17;102732.00;4967344;28;20454;-64
2022/08/08 05:44:18;;;;;;;9.02;4.93;;;;;;;17.59;83.47;102736.91;4949481;28;20026;-64
2022/08/08 05:46:43;;;;;;;9.00;4.32;;;;;;;17.67;83.07;102729.53;4977070;28;20453;-65
2022/08/08 05:49:09;;;;;;;8.77;4.60;;;;;;;17.77;82.60;102729.22;4986015;28;20374;-65
2022/08/08 05:51:34;;;;;;;10.48;4.30;;;;;;;17.84;82.06;102735.19;4984996;28;20558;-64
2022/08/08 05:54:00;;;;;;;9.60;3.95;;;;;;;17.88;81.57;102728.84;4986214;28;20045;-65
2022/08/08 05:56:27;;;;;;;13.90;4.22;;;;;;;17.95;81.44;102743.72;4975989;28;20041;-64
2022/08/08 05:59:16;;;;;;;11.02;3.78;;;;;;;18.03;81.45;102741.63;4980351;28;20178;-65
2022/08/08 06:01:42;;;;;;;6.80;3.13;;;;;;;18.11;80.76;102738.72;4982447;28;20027;-66
2022/08/08 06:04:09;;;;;;;10.73;3.53;;;;;;;18.18;80.62;102739.38;4980389;28;20085;-64
2022/08/08 06:06:38;;;;;;;10.63;2.90;;;;;;;18.29;80.33;102730.97;4964954;28;20031;-65
2022/08/08 06:09:04;;;;;;;6.82;2.63;;;;;;;18.40;79.61;102741.28;4965523;28;20030;-64
2022/08/08 06:11:31;;;;;;;5.75;2.85;;;;;;;18.51;78.92;102743.56;4947599;28;20034;-67
2022/08/08 06:13:56;;;;;;;10.77;3.10;;;;;;;18.65;78.94;102748.34;4965655;28;20051;-67
2022/08/08 06:16:22;;;;;;;11.63;2.92;;;;;;;18.64;79.06;102742.16;4965990;28;20434;-67
2022/08/08 06:18:49;;;;;;;7.13;2.80;;;;;;;18.62;78.68;102738.66;4965551;28;20371;-66
2022/08/08 06:21:16;;;;;;;13.07;2.97;;;;;;;18.78;78.51;102746.09;4946799;29;20197;-66
2022/08/08 06:23:41;;;;;;;13.98;3.95;;;;;;;18.82;78.19;102753.06;4946283;29;20359;-70
2022/08/08 06:26:10;;;;;;;15.85;4.55;;;;;;;18.82;78.56;102748.56;4980222;28;20058;-66
2022/08/08 06:28:51;;;;;;;15.02;4.22;;;;;;;19.07;77.53;102754.75;4985719;28;20034;-67
2022/08/08 06:31:20;;;;;;;9.40;3.53;;;;;;;19.14;77.33;102750.09;4977019;28;20100;-67
2022/08/08 06:34:13;;;;;;;14.68;3.55;;;;;;;19.21;76.93;102758.72;4965662;28;20641;-65
2022/08/08 06:36:40;;;;;;;7.82;3.33;;;;;;;19.23;76.79;102754.19;4965712;28;20630;-66
2022/08/08 06:39:10;;;;;;;7.40;2.58;;;;;;;19.24;76.51;102753.25;4965464;28;20034;-67
2022/08/08 06:41:55;;;;;;;11.38;3.05;;;;;;;19.26;76.23;102749.56;4965048;28;20026;-67
2022/08/08 06:44:23;;;;;;;7.65;3.10;;;;;;;19.46;76.10;102753.25;4963151;28;20057;-67
2022/08/08 06:46:48;;;;;;;9.95;2.50;;;;;;;19.52;75.57;102752.09;4963791;28;20123;-68
2022/08/08 06:49:13;;;;;;;14.15;3.00;;;;;;;19.44;75.72;102763.09;4965380;28;20106;-66
2022/08/08 06:51:39;;;;;;;7.88;2.47;;;;;;;19.60;75.53;102762.50;4964534;28;20058;-67
2022/08/08 06:54:05;;;;;;;3.30;2.47;;;;;;;19.61;75.60;102762.44;4966737;28;20018;-65
2022/08/08 06:56:30;;;;;;;6.75;2.35;;;;;;;19.60;74.92;102762.50;4975739;28;20026;-67
2022/08/08 06:58:56;;;;;;;8.45;2.22;;;;;;;19.60;74.88;102757.16;4985370;28;20400;-66
2022/08/08 07:01:26;;;;;;;9.02;1.98;;;;;;;19.79;74.46;102755.44;4982876;28;20037;-67
2022/08/08 07:03:57;;;;;;;5.32;2.33;;;;;;;19.86;73.77;102761.38;4948399;28;20027;-67
2022/08/08 07:06:23;;;;;;;4.90;2.13;;;;;;;19.69;74.19;102764.78;4959791;28;20386;-67
2022/08/08 07:08:57;;;;;;;5.15;2.28;;;;;;;19.79;73.84;102751.88;4946279;28;20027;-67
2022/08/08 07:11:27;;;;;;;5.97;2.10;;;;;;;19.85;73.46;102764.13;4964292;28;20069;-67
2022/08/08 07:13:58;;;;;;;5.60;2.00;;;;;;;19.95;73.16;102763.66;4964010;28;20097;-66
2022/08/08 07:16:44;;;;;;;9.02;2.30;;;;;;;20.16;73.16;102778.88;4972017;28;20460;-65
2022/08/08 07:19:39;;;;;;;8.75;2.40;;;;;;;20.32;72.18;102774.56;4983558;28;20177;-66
2022/08/08 07:22:07;;;;;;;7.03;2.03;;;;;;;20.29;71.87;102779.22;4938213;28;20042;-67
2022/08/08 07:24:42;;;;;;;6.65;2.05;;;;;;;20.51;71.03;102780.91;4983391;28;20246;-67
2022/08/08 07:27:11;;;;;;;3.50;1.92;;;;;;;20.42;70.65;102783.06;4967738;28;20031;-67
2022/08/08 07:29:37;;;;;;;7.95;2.28;;;;;;;20.70;70.54;102784.47;4978068;28;20037;-66
2022/08/08 07:32:02;;;;;;;9.32;2.38;;;;;;;21.01;70.08;102781.34;4982375;28;20014;-67
2022/08/08 07:34:28;;;;;;;9.38;2.13;;;;;;;21.13;69.12;102782.56;4981171;28;20412;-68
2022/08/08 07:36:54;;;;;;;4.13;2.15;;;;;;;21.14;68.85;102785.16;4983243;28;20028;-67
2022/08/08 07:39:23;;;;;;;8.68;2.03;;;;;;;21.24;68.59;102782.03;4970595;28;20038;-66
2022/08/08 07:41:49;;;;;;;5.50;1.80;;;;;;;21.11;69.24;102785.31;4963673;28;20037;-67
2022/08/08 07:44:16;;;;;;;6.78;1.90;;;;;;;21.50;67.50;102782.56;4970720;28;20026;-66
2022/08/08 07:46:42;;;;;;;3.28;1.52;;;;;;;21.73;67.60;102785.91;4982794;28;20034;-66
2022/08/08 07:49:07;;;;;;;7.07;1.98;;;;;;;21.70;67.08;102782.41;4975342;28;20042;-64
2022/08/08 07:51:33;;;;;;;6.68;2.30;;;;;;;21.61;66.79;102788.25;4964768;28;20027;-67
2022/08/08 07:54:14;;;;;;;6.47;2.13;;;;;;;21.76;66.78;102786.63;4962370;28;20031;-66
2022/08/08 07:56:59;;;;;;;5.63;1.90;;;;;;;22.03;66.92;102788.00;4963556;28;20035;-67
2022/08/08 07:59:26;;;;;;;4.97;1.80;;;;;;;22.43;65.29;102791.22;4945339;28;20445;-66
2022/08/08 08:01:57;;;;;;;6.78;1.60;;;;;;;22.54;64.15;102792.47;4957983;28;20294;-65
2022/08/08 08:04:32;;;;;;;6.68;1.90;;;;;;;22.52;63.96;102799.75;4982480;28;20073;-65
2022/08/08 08:06:59;;;;;;;6.82;1.90;;;;;;;22.69;63.60;102793.47;4979132;28;20054;-67
2022/08/08 08:09:27;;;;;;;8.13;2.10;;;;;;;22.35;64.14;102801.53;4963916;28;20085;-68
2022/08/08 08:11:54;;;;;;;4.60;1.57;;;;;;;22.54;62.91;102801.41;4925358;28;1089828;-67
2022/08/08 08:14:29;;;;;;;8.95;1.88;;;;;;;22.57;63.23;102792.28;4946998;28;20038;-67
2022/08/08 08:16:54;;;;;;;6.43;2.38;;;;;;;22.54;63.41;102803.19;4958615;28;20033;-65
2022/08/08 08:19:21;;;;;;;4.45;1.38;;;;;;;22.57;63.61;102808.41;4961356;28;20386;-66
2022/08/08 08:21:48;;;;;;;5.28;1.75;;;;;;;22.46;63.25;102807.19;4962186;28;20124;-67
2022/08/08 08:24:13;;;;;;;3.20;1.70;;;;;;;22.27;62.67;102811.81;4964349;28;20022;-66
2022/08/08 08:26:39;;;;;;;3.58;1.45;;;;;;;22.44;63.11;102806.41;4966136;28;20389;-65
2022/08/08 08:29:04;;;;;;;4.97;1.85;;;;;;;22.45;63.58;102810.81;4967820;28;20015;-67
2022/08/08 08:31:31;;;;;;;3.60;1.40;;;;;;;22.62;62.86;102816.25;4964434;28;20035;-68
2022/08/08 08:33:56;;;;;;;4.18;1.30;;;;;;;22.86;62.22;102816.75;4965854;28;20098;-66
2022/08/08 08:36:22;;;;;;;5.47;1.77;;;;;;;22.69;61.82;102823.91;4965475;28;20114;-67
2022/08/08 08:38:47;;;;;;;3.38;1.52;;;;;;;22.77;62.75;102817.25;4967468;28;20465;-66
2022/08/08 08:41:13;;;;;;;6.70;1.92;;;;;;;22.81;61.45;102816.13;4966992;28;20157;-68
2022/08/08 08:43:40;;;;;;;7.05;2.10;;;;;;;22.74;61.93;102820.09;4949796;28;20462;-67
2022/08/08 08:46:10;;;;;;;6.47;1.85;;;;;;;22.61;62.26;102819.91;4967656;28;20039;-67
2022/08/08 08:48:36;;;;;;;4.63;1.80;;;;;;;22.69;61.69;102821.22;4955473;28;20105;-68
2022/08/08 08:51:03;;;;;;;7.78;2.15;;;;;;;23.06;61.02;102814.78;4966913;28;20501;-67
2022/08/08 08:53:35;;;;;;;7.13;1.65;;;;;;;23.31;60.22;102821.44;4966073;28;20078;-67
2022/08/08 08:56:00;;;;;;;4.78;1.67;;;;;;;23.43;59.22;102812.69;4950995;28;20034;-68
2022/08/08 08:58:41;;;;;;;4.60;2.10;;;;;;;23.02;60.28;102811.38;4947918;28;20022;-66
2022/08/08 09:01:08;;;;;;;5.10;1.48;;;;;;;23.37;58.85;102813.06;4948850;28;20033;-67
2022/08/08 09:03:34;;;;;;;6.53;1.60;;;;;;;23.12;59.90;102809.06;4966825;28;20037;-68
2022/08/08 09:06:00;;;;;;;8.35;1.58;;;;;;;23.28;59.74;102813.53;4949583;28;20023;-67
2022/08/08 09:08:27;;;;;;;3.30;1.60;;;;;;;23.16;58.70;102821.38;4949282;28;20027;-65
2022/08/08 09:10:53;;;;;;;4.30;1.45;;;;;;;23.12;58.45;102814.44;4949427;28;20033;-67
2022/08/08 09:13:19;;;;;;;2.70;1.25;;;;;;;23.44;58.07;102809.03;4964043;28;20214;-67
2022/08/08 09:15:45;;;;;;;4.30;1.70;;;;;;;23.68;57.52;102811.25;4947554;28;20372;-66
2022/08/08 09:18:10;;;;;;;5.57;1.67;;;;;;;23.64;56.47;102812.41;4967076;28;20033;-66
2022/08/08 09:20:38;;;;;;;2.20;1.25;;;;;;;23.57;56.61;102822.63;4966309;28;20595;-65
2022/08/08 09:23:04;;;;;;;3.47;1.63;;;;;;;23.46;56.36;102817.03;4933398;28;20034;-66
2022/08/08 09:25:32;;;;;;;6.82;1.52;;;;;;;23.65;55.91;102822.19;4966089;28;20034;-66
2022/08/08 09:27:57;;;;;;;5.97;1.42;;;;;;;23.52;57.92;102821.19;4948594;28;20037;-66
2022/08/08 09:30:25;;;;;;;6.65;1.40;;;;;;;23.85;56.58;102814.78;4948054;28;20110;-65
2022/08/08 09:32:53;;;;;;;4.57;1.40;;;;;;;23.68;57.06;102818.44;4965282;28;20414;-65
2022/08/08 09:35:21;;;;;;;2.70;1.40;;;;;;;23.75;57.22;102816.28;4965569;28;20731;-66
2022/08/08 09:37:47;;;;;;;3.92;1.60;;;;;;;23.53;56.53;102829.16;4962840;28;20026;-65
2022/08/08 09:40:20;;;;;;;7.10;1.67;;;;;;;23.54;56.94;102832.72;4966009;28;20030;-66
2022/08/08 09:42:47;;;;;;;4.47;2.17;;;;;;;23.32;58.48;102824.03;4964465;28;20026;-65
2022/08/08 09:45:31;;;;;;;5.43;1.65;;;;;;;23.34;58.62;102829.31;4965410;28;20030;-64
2022/08/08 09:48:02;;;;;;;7.53;1.45;;;;;;;23.32;57.71;102842.88;4963356;28;20473;-64
2022/08/08 09:50:29;;;;;;;3.08;1.70;;;;;;;23.42;57.47;102834.31;4963374;28;20577;-66
2022/08/08 09:52:56;;;;;;;1.55;1.15;;;;;;;23.52;57.52;102838.19;4964028;28;20643;-67
2022/08/08 09:55:22;;;;;;;4.72;1.20;;;;;;;23.73;55.23;102827.13;4966457;28;20023;-65
2022/08/08 09:57:49;;;;;;;3.67;1.08;;;;;;;24.05;54.23;102818.94;4948837;28;20380;-65
2022/08/08 10:00:16;;;;;;;4.68;1.30;;;;;;;24.61;51.56;102828.19;4965217;28;20385;-66
2022/08/08 10:02:44;;;;;;;2.10;1.17;;;;;;;24.65;51.53;102832.41;4966165;28;20035;-67
2022/08/08 10:05:15;;;;;;;3.65;1.35;;;;;;;24.91;51.23;102829.94;4974977;28;20027;-62
2022/08/08 10:07:58;;;;;;;5.50;1.50;;;;;;;24.64;52.18;102821.72;4965874;28;20711;-67
2022/08/08 10:10:36;;;;;;;5.25;1.60;;;;;;;25.24;51.02;102820.63;4965235;28;20030;-65
2022/08/08 10:13:14;;;;;;;3.03;1.33;;;;;;;25.49;50.38;102829.75;4960945;28;20031;-65
2022/08/08 10:15:41;;;;;;;1.95;1.10;;;;;;;25.65;50.01;102822.50;4967000;28;20046;-66
2022/08/08 10:18:06;;;;;;;3.45;1.20;;;;;;;25.06;50.36;102821.81;4947007;28;20073;-67
2022/08/08 10:20:46;;;;;;;2.92;1.20;;;;;;;25.04;50.25;102815.66;4947898;28;20891;-67
2022/08/08 10:23:14;;;;;;;3.47;1.27;;;;;;;25.04;52.14;102818.34;4945559;29;20027;-66
2022/08/08 10:25:41;;;;;;;3.93;1.50;;;;;;;25.26;50.21;102816.94;4967241;28;20188;-66
2022/08/08 10:28:15;;;;;;;5.97;1.52;;;;;;;24.89;49.85;102812.97;4952767;28;20088;-67
2022/08/08 10:30:53;;;;;;;7.82;1.67;;;;;;;24.75;51.21;102811.16;4983287;28;20048;-66
2022/08/08 10:33:29;;;;;;;2.63;1.30;;;;;;;25.41;49.28;102818.63;4984454;28;20034;-67
2022/08/08 10:35:55;;;;;;;3.13;1.42;;;;;;;25.26;50.25;102811.53;4966960;28;20027;-66
2022/08/08 10:38:21;;;;;;;5.75;1.23;;;;;;;25.55;48.64;102820.38;4964663;28;20033;-67
2022/08/08 10:40:50;;;;;;;5.85;1.50;;;;;;;25.61;48.30;102819.13;4976456;28;20090;-66
2022/08/08 10:43:15;;;;;;;4.65;1.05;;;;;;;25.63;47.42;102825.31;4984928;28;20505;-66
2022/08/08 10:45:42;;;;;;;3.13;1.17;;;;;;;25.58;45.77;102824.72;4976022;28;20073;-65
2022/08/08 10:48:09;;;;;;;1.73;0.90;;;;;;;25.40;46.20;102816.88;4964437;28;20050;-64
2022/08/08 10:50:36;;;;;;;1.13;0.82;;;;;;;25.44;46.83;102817.56;4967417;28;20030;-66
2022/08/08 10:53:11;;;;;;;4.20;1.08;;;;;;;25.17;47.78;102816.59;4974493;28;20073;-67
2022/08/08 10:55:37;;;;;;;3.88;1.38;;;;;;;25.36;48.08;102820.75;4968619;28;20117;-66
2022/08/08 10:58:04;;;;;;;2.50;1.25;;;;;;;25.51;47.91;102823.38;4980837;28;20057;-66
2022/08/08 11:00:30;;;;;;;2.57;1.20;;;;;;;25.19;48.27;102824.59;4979830;28;20018;-66
2022/08/08 11:02:57;;;;;;;3.65;1.23;;;;;;;25.15;48.80;102813.13;4976791;28;20026;-64
2022/08/08 11:05:23;;;;;;;4.70;1.50;;;;;;;24.96;49.99;102817.00;4976696;28;20682;-63
2022/08/08 11:07:53;;;;;;;1.98;1.08;;;;;;;24.93;49.62;102809.13;4983628;28;20022;-65
2022/08/08 11:10:20;;;;;;;2.45;1.38;;;;;;;24.88;50.31;102815.75;4978169;28;20034;-67
2022/08/08 11:12:53;;;;;;;1.60;1.00;;;;;;;24.78;49.68;102815.47;4975008;28;20093;-66
2022/08/08 11:15:23;;;;;;;2.13;1.23;;;;;;;24.72;49.52;102812.19;4977951;28;20070;-66
2022/08/08 11:17:50;;;;;;;3.42;1.20;;;;;;;24.61;50.23;102810.19;4977144;28;20025;-67
2022/08/08 11:20:27;;;;;;;1.75;1.20;;;;;;;24.27;50.85;102801.53;4957517;28;20030;-67
2022/08/08 11:22:59;;;;;;;3.67;1.33;;;;;;;24.56;50.76;102803.38;4976160;28;20026;-66
2022/08/08 11:25:28;;;;;;;4.75;1.25;;;;;;;24.91;49.03;102802.97;4982608;28;20027;-67
2022/08/08 11:27:56;;;;;;;2.90;1.40;;;;;;;25.52;48.63;102801.69;4982437;28;20030;-66
2022/08/08 11:30:22;;;;;;;5.57;1.17;;;;;;;25.49;48.41;102805.47;4983126;28;20088;-64
2022/08/08 11:32:52;;;;;;;2.38;1.05;;;;;;;25.11;49.27;102807.03;4977861;28;20023;-65
2022/08/08 11:35:18;;;;;;;2.92;1.10;;;;;;;25.04;49.34;102802.19;4973300;28;20027;-67
2022/08/08 11:37:43;;;;;;;2.38;1.08;;;;;;;25.27;49.83;102805.16;4979097;28;20037;-66
2022/08/08 11:40:10;;;;;;;2.13;0.95;;;;;;;26.05;46.38;102800.00;4975391;28;20057;-67
2022/08/08 11:42:37;;;;;;;3.08;1.30;;;;;;;25.45;48.63;102797.69;4980925;28;20027;-65
2022/08/08 11:45:05;;;;;;;1.75;1.30;;;;;;;25.61;47.58;102798.41;4977719;28;20011;-67
2022/08/08 11:47:31;;;;;;;1.83;1.23;;;;;;;25.41;46.86;102807.84;4981567;28;20049;-65
2022/08/08 11:49:59;;;;;;;3.63;1.08;;;;;;;25.89;46.11;102794.81;4981484;28;20038;-67